Πλησιέστερες Αναφορές METAR

 

LGTS - Thessaloniki/Makedonia-Elev 7m
Distance from station: Ν 13km
Ενημερώθηκε: 18/09/2021 06:20
Αίθριος
Αίθριος
 Ανεμος από ΑΝΑ
Ανεμος: ΑΝΑ 9 km/h
Θερμοκρασία: 19°C
Σημείο Δρόσου: 16°C
Υγρασία: 83%
Βαρόμετρο: 1010 hPa
Συνθήκες: Αίθριος
Visibility: greater than 10 km
2021/09/18 03:20 LGTS 180320Z 11005KT CAVOK 19/16 Q1010 NOSIG
LGAV - Athens/Elef. Venizelos-Elev 94m
Distance from station: ΝΝΑ 312km
Ενημερώθηκε: 18/09/2021 06:20
Few Clouds
Few Clouds
 Ανεμος από varies
Ανεμος: varies 4 km/h
Θερμοκρασία: 23°C
Σημείο Δρόσου: 13°C
Υγρασία: 53%
Βαρόμετρο: 1012 hPa
Clouds: Few Clouds
Visibility: 10 km
Cloud details: Few Clouds 762 m
2021/09/18 03:20 LGAV 180320Z VRB02KT 9999 FEW025 23/13 Q1012 NOSIG
 
LGAL - Alexandroupolis-Elev 3m
Distance from station: Α 251km
Ενημερώθηκε: 18/09/2021 06:20
Αίθριος
Αίθριος
 Ανεμος από calm
Ανεμος: Απνοια
Θερμοκρασία: 18°C
Σημείο Δρόσου: 15°C
Υγρασία: 83%
Βαρόμετρο: 1010 hPa
Συνθήκες: Αίθριος
Visibility: greater than 10 km
2021/09/18 03:20 LGAL 180320Z 00000KT CAVOK 18/15 Q1010
LGKV - Kavala/Crysoupolis-Elev 5m
Distance from station: ΑΒΑ 144km
Ενημερώθηκε: 18/09/2021 06:20
Αίθριος
Αίθριος
 Ανεμος από calm
Ανεμος: Απνοια
Θερμοκρασία: 18°C
Σημείο Δρόσου: 17°C
Υγρασία: 94%
Βαρόμετρο: 1010 hPa
Συνθήκες: Αίθριος
Visibility: greater than 10 km
2021/09/18 03:20 LGKV 180320Z 00000KT CAVOK 18/17 Q1010
 
LGSK - Skiathos Island-Elev 15m
Distance from station: ΝΝΑ 168km
Ενημερώθηκε: 17/09/2021 20:50
Μη Ενημερωμένο!
Αίθριος
Αίθριος
 Ανεμος από ΝΝΔ
Ανεμος: ΝΝΔ 7 km/h
Θερμοκρασία: 25°C
Σημείο Δρόσου: 20°C
Υγρασία: 74%
Βαρόμετρο: 1011 hPa
Συνθήκες: Αίθριος
Visibility: greater than 10 km
2021/09/17 17:50 LGSK 171750Z 21004KT CAVOK 25/20 Q1011
LGLM - Limnos Island-Elev 5m
Distance from station: ΑΝΑ 210km
Ενημερώθηκε: 18/09/2021 06:20
Αίθριος
Αίθριος
 Ανεμος από calm
Ανεμος: Απνοια
Θερμοκρασία: 21°C
Σημείο Δρόσου: 20°C
Υγρασία: 94%
Βαρόμετρο: 1010 hPa
Συνθήκες: Αίθριος
Visibility: greater than 10 km
2021/09/18 03:20 LGLM 180320Z 00000KT CAVOK 21/20 Q1010
 
LGMT - Mitilini Island-Elev 17m
Distance from station: ΑΝΑ 358km
Ενημερώθηκε: 18/09/2021 06:20
Αίθριος
Αίθριος
 Ανεμος από varies
Ανεμος: varies 2 km/h
Θερμοκρασία: 22°C
Σημείο Δρόσου: 11°C
Υγρασία: 50%
Βαρόμετρο: 1012 hPa
Συνθήκες: Αίθριος
Visibility: greater than 10 km
2021/09/18 03:20 LGMT 180320Z VRB01KT CAVOK 22/11 Q1012
LGSY - Skiros Island-Elev 15m
Distance from station: ΝΑ 227km
Ενημερώθηκε: 17/09/2021 20:50
Μη Ενημερωμένο!
Αίθριος
Αίθριος
 Ανεμος από Ν
Ανεμος: Ν 19 km/h
Θερμοκρασία: 28°C
Heat Index: 30°C
Σημείο Δρόσου: 21°C
Υγρασία: 66%
Βαρόμετρο: 1011 hPa
Συνθήκες: Αίθριος
Visibility: greater than 10 km
2021/09/17 17:50 LGSY 171750Z 17010KT CAVOK 28/21 Q1011 RMK BKN180 BLU
 
LGKZ - Kozani-Elev 628m
Distance from station: ΔΝΔ 102km
Ενημερώθηκε: 18/09/2021 06:20

 Ανεμος από varies
Ανεμος: varies 6 km/h
Θερμοκρασία: 18°C
Σημείο Δρόσου: 7°C
Υγρασία: 49%
Βαρόμετρο: 1015 hPa
2021/09/18 03:20 LGKZ 180320Z AUTO VRB03KT //// // ////// 18/07 Q1015 RE//
LGIO - Ioannina-Elev 476m
Distance from station: ΔΝΔ 209km
Ενημερώθηκε: 18/09/2021 06:20

 Ανεμος από varies
Ανεμος: varies 2 km/h
Θερμοκρασία: 14°C
Σημείο Δρόσου: 12°C
Υγρασία: 88%
Βαρόμετρο: 1017 hPa
2021/09/18 03:20 LGIO 180320Z AUTO VRB01KT //// // ////// 14/12 Q1017 RE//
 
LGZA - Zakinthos-Elev 3m
Distance from station: ΝΝΔ 367km
Ενημερώθηκε: 17/09/2021 21:50
Μη Ενημερωμένο!
Few Clouds
Few Clouds
 Ανεμος από ΝΝΔ
Ανεμος: ΝΝΔ 11 km/h
Θερμοκρασία: 25°C
Σημείο Δρόσου: 22°C
Υγρασία: 83%
Βαρόμετρο: 1015 hPa
Clouds: Few Clouds
Visibility: 10 km
Cloud details: Few Clouds 366 m
2021/09/17 18:50 LGZA 171850Z 21006KT 9999 FEW012 25/22 Q1015
LGKR - Corfu Island-Elev 2m
Distance from station: ΔΝΔ 282km
Ενημερώθηκε: 18/09/2021 06:20
Σχεδόν νεφελώδης
Σχεδόν νεφελώδης
 Ανεμος από ΑΝΑ
Ανεμος: ΑΝΑ 15 km/h
Θερμοκρασία: 24°C
Σημείο Δρόσου: 21°C
Υγρασία: 83%
Βαρόμετρο: 1014 hPa
Clouds: Σχεδόν νεφελώδης
Visibility: 7 km
Cloud details: Μερικώς νεφελώδης 244 m
Σχεδόν νεφελώδης 549 m
2021/09/18 03:20 LGKR 180320Z 12008KT 7000 SCT008 BKN018 24/21 Q1014 NOSIG
 
LGSO - Syros Island-Elev 72m
Distance from station: ΝΝΑ 397km
Ενημερώθηκε: 18/09/2021 06:20

 Ανεμος από ΔΝΔ
Ανεμος: ΔΝΔ 7 km/h
Θερμοκρασία: 22°C
Σημείο Δρόσου: 19°C
Υγρασία: 83%
Βαρόμετρο: 1012 hPa
2021/09/18 03:20 LGSO 180320Z AUTO 24004KT //// // ////// 22/19 Q1012 RE//
LGMK - Mikonos Island-Elev 123m
Distance from station: ΝΝΑ 412km
Ενημερώθηκε: 18/09/2021 06:20
Few Clouds
Few Clouds
 Ανεμος από varies
Ανεμος: varies 6 km/h
Θερμοκρασία: 23°C
Σημείο Δρόσου: 18°C
Υγρασία: 74%
Βαρόμετρο: 1012 hPa
Clouds: Few Clouds
Visibility: 10 km
Cloud details: Few Clouds 366 m
2021/09/18 03:20 LGMK 180320Z VRB03KT 9999 FEW012 23/18 Q1012
 
LGSR - Santorini Island-Elev 40m
Distance from station: ΝΝΑ 520km
Ενημερώθηκε: 18/09/2021 06:20
Αίθριος
Αίθριος
 Ανεμος από ΔΝΔ
Ανεμος: ΔΝΔ 20 km/h
Θερμοκρασία: 23°C
Σημείο Δρόσου: 18°C
Υγρασία: 74%
Βαρόμετρο: 1012 hPa
Συνθήκες: Αίθριος
Visibility: greater than 10 km
2021/09/18 03:20 LGSR 180320Z 24011KT CAVOK 23/18 Q1012
LGKL - Kalamata-Elev 8m
Distance from station: Ν 405km
Ενημερώθηκε: 18/09/2021 06:20
Αίθριος
Αίθριος
 Ανεμος από ΒΒΔ
Ανεμος: ΒΒΔ 9 km/h
Θερμοκρασία: 19°C
Σημείο Δρόσου: 17°C
Υγρασία: 88%
Βαρόμετρο: 1014 hPa
Συνθήκες: Αίθριος
Visibility: greater than 10 km
2021/09/18 03:20 LGKL 180320Z 33005KT CAVOK 19/17 Q1014
 
LGIR - Iraklion/Crete-Elev 5m
Distance from station: ΝΝΑ 622km
Ενημερώθηκε: 18/09/2021 06:20
Αίθριος
Αίθριος
 Ανεμος από Ν
Ανεμος: Ν 13 km/h
Θερμοκρασία: 23°C
Σημείο Δρόσου: 14°C
Υγρασία: 57%
Βαρόμετρο: 1013 hPa
Συνθήκες: Αίθριος
Visibility: greater than 10 km
2021/09/18 03:20 LGIR 180320Z 18007KT CAVOK 23/14 Q1013 NOSIG
LGRP - Rhodes-Elev 5m
Distance from station: ΝΑ 649km
Ενημερώθηκε: 18/09/2021 06:20
Αίθριος
Αίθριος
 Ανεμος από Δ
Ανεμος: Δ 15 km/h
Θερμοκρασία: 24°C
Σημείο Δρόσου: 17°C
Υγρασία: 65%
Βαρόμετρο: 1012 hPa
Συνθήκες: Αίθριος
Visibility: greater than 10 km
2021/09/18 03:20 LGRP 180320Z 26008KT CAVOK 24/17 Q1012 NOSIG
 
LWOH - Ohrid/FYROM-Elev 761m
Distance from station: ΔΒΔ 188km
Ενημερώθηκε: 17/09/2021 22:00
Μη Ενημερωμένο!
Nearby thunderstorm, Σχεδόν νεφελώδης
Nearby thunderstorm, Σχεδόν νεφελώδης
 Ανεμος από ΝΔ
Ανεμος: ΝΔ 7 km/h
Θερμοκρασία: 22°C
Σημείο Δρόσου: 11°C
Υγρασία: 50%
Βαρόμετρο: 1017 hPa
Συνθήκες: Nearby Thunderstorm
Clouds: Σχεδόν νεφελώδης
Visibility: 10 km
Cloud details: Few Clouds 1219 m
Σχεδόν νεφελώδης 2743 m
2021/09/17 19:00 LWOH 171900Z 22004KT 9999 VCTS FEW040CB BKN090 22/11 Q1017
LBSF - Sofia/Bulgaria-Elev 595m
Distance from station: Β 227km
Ενημερώθηκε: 18/09/2021 06:30
Συννεφιά
Συννεφιά
 Ανεμος από Ν
Ανεμος: Ν 9 km/h
Θερμοκρασία: 16°C
Σημείο Δρόσου: 15°C
Υγρασία: 94%
Βαρόμετρο: 1012 hPa
Clouds: Συννεφιά
Visibility: 10 km
Cloud details: Μερικώς νεφελώδης 1707 m
Σχεδόν νεφελώδης 2042 m
Συννεφιά 2621 m
2021/09/18 03:30 LBSF 180330Z 17005KT 130V190 9999 SCT056 BKN067 OVC086 16/15 Q1012 NOSIG
Σημερινά ρεκόρ Μετεωρολογικού Σταθμού
Δεν έχει σημειωθεί νέο ρεκόρ μέχρι τις 06:35 σήμερα - 18/9/2021